createdAt,value
2023-03-24T00:01:19.660Z,7.07
2023-03-24T00:03:49.098Z,9.32
2023-03-24T00:06:18.959Z,6.68
2023-03-24T00:08:48.555Z,8.98
2023-03-24T00:11:18.765Z,6.95
2023-03-24T00:13:47.330Z,7.65
2023-03-24T00:16:17.190Z,8.43
2023-03-24T00:18:50.343Z,10.68
2023-03-24T00:21:18.450Z,9.10
2023-03-24T00:23:49.456Z,8.68
2023-03-24T00:26:17.606Z,7.25
2023-03-24T00:28:47.343Z,7.47
2023-03-24T00:31:17.135Z,6.78
2023-03-24T00:33:52.213Z,7.03
2023-03-24T00:36:21.279Z,6.75
2023-03-24T00:38:48.686Z,5.55
2023-03-24T00:41:20.281Z,5.80
2023-03-24T00:43:48.995Z,6.28
2023-03-24T00:46:30.451Z,7.35
2023-03-24T00:49:05.644Z,7.60
2023-03-24T00:51:37.718Z,8.07
2023-03-24T00:54:06.320Z,6.30
2023-03-24T00:56:35.796Z,6.35
2023-03-24T00:59:05.377Z,6.82
2023-03-24T01:01:41.619Z,7.28
2023-03-24T01:04:10.197Z,8.13
2023-03-24T01:06:38.518Z,6.82
2023-03-24T01:09:06.432Z,5.80
2023-03-24T01:11:40.405Z,5.25
2023-03-24T01:14:08.795Z,7.05
2023-03-24T01:16:36.167Z,5.90
2023-03-24T01:19:04.154Z,5.93
2023-03-24T01:21:32.276Z,6.07
2023-03-24T01:23:59.650Z,5.63
2023-03-24T01:28:54.589Z,7.07
2023-03-24T01:33:49.058Z,5.53
2023-03-24T01:36:16.299Z,5.85
2023-03-24T01:38:44.300Z,7.72
2023-03-24T01:41:11.611Z,7.10
2023-03-24T01:46:23.815Z,6.15
2023-03-24T01:48:56.444Z,7.47
2023-03-24T01:51:37.433Z,6.07
2023-03-24T01:54:36.830Z,7.43
2023-03-24T01:57:23.878Z,8.70
2023-03-24T01:59:55.861Z,13.15
2023-03-24T02:02:49.530Z,12.02
2023-03-24T02:05:28.479Z,13.02
2023-03-24T02:08:01.186Z,14.90
2023-03-24T02:10:32.759Z,10.85
2023-03-24T02:13:02.036Z,9.32
2023-03-24T02:15:32.023Z,7.25
2023-03-24T02:18:08.255Z,9.63
2023-03-24T02:20:54.623Z,13.15
2023-03-24T02:23:55.896Z,13.35
2023-03-24T02:26:40.262Z,11.73
2023-03-24T02:29:42.566Z,8.40
2023-03-24T02:32:33.862Z,6.30
2023-03-24T02:35:12.817Z,6.38
2023-03-24T02:38:17.369Z,5.22
2023-03-24T02:41:04.085Z,5.30
2023-03-24T02:43:37.322Z,5.47
2023-03-24T02:46:25.077Z,6.45
2023-03-24T02:49:10.795Z,5.35
2023-03-24T02:51:44.025Z,8.57
2023-03-24T02:54:14.233Z,5.80
2023-03-24T02:57:03.702Z,6.50
2023-03-24T03:00:14.856Z,5.10
2023-03-24T03:03:41.998Z,6.53
2023-03-24T03:06:34.028Z,8.65
2023-03-24T03:09:09.770Z,5.35
2023-03-24T03:11:47.610Z,8.35
2023-03-24T03:14:54.869Z,6.70
2023-03-24T03:17:30.620Z,7.10
2023-03-24T03:20:08.340Z,7.70
2023-03-24T03:22:56.827Z,5.18
2023-03-24T03:25:29.222Z,5.13
2023-03-24T03:28:01.084Z,5.15
2023-03-24T03:30:52.733Z,6.05
2023-03-24T03:33:25.445Z,6.18
2023-03-24T03:36:20.776Z,7.70
2023-03-24T03:39:55.531Z,6.97
2023-03-24T03:42:25.829Z,9.00
2023-03-24T03:44:53.809Z,13.10
2023-03-24T03:47:46.947Z,9.18
2023-03-24T03:50:14.249Z,10.55
2023-03-24T03:52:41.707Z,14.55
2023-03-24T03:55:35.475Z,11.02
2023-03-24T03:58:04.741Z,8.70
2023-03-24T04:00:45.485Z,8.50
2023-03-24T04:03:34.525Z,6.40
2023-03-24T04:06:21.542Z,8.45
2023-03-24T04:09:36.277Z,6.28
2023-03-24T04:12:04.690Z,7.85
2023-03-24T04:17:54.268Z,10.38
2023-03-24T04:20:56.184Z,6.63
2023-03-24T04:23:28.586Z,5.57
2023-03-24T04:26:26.613Z,5.97
2023-03-24T04:29:00.636Z,6.68
2023-03-24T04:32:02.341Z,9.07
2023-03-24T04:34:41.984Z,11.35
2023-03-24T04:37:38.299Z,9.65
2023-03-24T04:40:15.510Z,8.45
2023-03-24T04:42:52.790Z,7.78
2023-03-24T04:45:26.674Z,9.18
2023-03-24T04:48:19.077Z,9.23
2023-03-24T04:53:29.247Z,11.20
2023-03-24T04:56:07.542Z,6.68
2023-03-24T05:01:23.104Z,6.68
2023-03-24T05:04:10.950Z,5.97
2023-03-24T05:06:38.180Z,4.53
2023-03-24T05:09:05.082Z,4.63
2023-03-24T05:11:32.867Z,5.97
2023-03-24T05:14:08.763Z,6.70
2023-03-24T05:16:39.010Z,4.72
2023-03-24T05:19:06.741Z,4.70
2023-03-24T05:21:34.805Z,3.85
2023-03-24T05:24:06.829Z,4.47
2023-03-24T05:26:35.952Z,5.43
2023-03-24T05:29:13.467Z,6.10
2023-03-24T05:31:44.728Z,5.90
2023-03-24T05:34:18.907Z,5.00
2023-03-24T05:36:55.056Z,6.68
2023-03-24T05:39:23.034Z,6.03
2023-03-24T05:44:26.853Z,6.50
2023-03-24T05:49:43.794Z,6.68
2023-03-24T05:52:11.473Z,4.50
2023-03-24T05:54:41.623Z,4.13
2023-03-24T05:57:16.835Z,5.38
2023-03-24T06:00:01.573Z,4.88
2023-03-24T06:02:55.120Z,6.22
2023-03-24T06:05:48.416Z,8.55
2023-03-24T06:08:17.300Z,4.88
2023-03-24T06:10:44.209Z,5.78
2023-03-24T06:13:18.228Z,4.97
2023-03-24T06:15:46.895Z,7.40
2023-03-24T06:18:34.330Z,6.80
2023-03-24T06:21:08.512Z,6.68
2023-03-24T06:23:38.313Z,4.70
2023-03-24T06:26:11.822Z,5.28
2023-03-24T06:29:04.881Z,6.00
2023-03-24T06:31:37.300Z,5.90
2023-03-24T06:34:08.902Z,5.22
2023-03-24T06:36:36.035Z,7.15
2023-03-24T06:39:07.661Z,5.78
2023-03-24T06:41:35.288Z,4.68
2023-03-24T06:44:05.697Z,5.10
2023-03-24T06:46:33.112Z,5.15
2023-03-24T06:49:03.801Z,4.43
2023-03-24T06:51:30.953Z,4.60
2023-03-24T06:56:27.660Z,7.07
2023-03-24T06:59:01.476Z,4.50
2023-03-24T07:01:35.336Z,2.92
2023-03-24T07:04:19.562Z,4.60
2023-03-24T07:07:19.076Z,3.97
2023-03-24T07:09:46.288Z,5.18
2023-03-24T07:12:14.918Z,5.32
2023-03-24T07:14:44.900Z,5.63
2023-03-24T07:17:12.892Z,7.82
2023-03-24T07:19:46.723Z,6.40
2023-03-24T07:22:48.801Z,8.98
2023-03-24T07:25:44.864Z,5.47
2023-03-24T07:28:30.767Z,8.30
2023-03-24T07:33:31.023Z,6.43
2023-03-24T07:35:57.981Z,7.43
2023-03-24T07:38:26.638Z,6.57
2023-03-24T07:40:59.485Z,6.38
2023-03-24T07:43:29.363Z,5.95
2023-03-24T07:45:58.629Z,8.32
2023-03-24T07:48:33.403Z,7.72
2023-03-24T07:51:00.724Z,8.48
2023-03-24T07:53:45.755Z,7.65
2023-03-24T07:56:19.895Z,7.18
2023-03-24T07:58:56.991Z,7.97
2023-03-24T08:01:30.397Z,11.38
2023-03-24T08:04:00.793Z,11.65
2023-03-24T08:06:58.683Z,11.65
2023-03-24T08:09:25.646Z,7.85
2023-03-24T08:11:58.925Z,8.70
2023-03-24T08:14:27.509Z,9.75
2023-03-24T08:16:54.869Z,8.13
2023-03-24T08:19:24.014Z,7.32
2023-03-24T08:21:51.003Z,7.53
2023-03-24T08:24:19.931Z,7.63
2023-03-24T08:26:52.891Z,7.68
2023-03-24T08:29:23.618Z,6.13
2023-03-24T08:31:50.548Z,5.15
2023-03-24T08:34:17.442Z,6.35
2023-03-24T08:36:44.452Z,5.88
2023-03-24T08:39:13.733Z,10.43
2023-03-24T08:41:40.816Z,8.93
2023-03-24T08:44:11.641Z,7.40
2023-03-24T08:46:42.388Z,9.43
2023-03-24T08:49:09.474Z,8.85
2023-03-24T08:51:36.449Z,8.50
2023-03-24T08:54:03.911Z,6.78
2023-03-24T08:56:35.577Z,5.63
2023-03-24T08:59:02.516Z,8.23
2023-03-24T09:01:30.085Z,6.22
2023-03-24T09:03:59.895Z,7.57
2023-03-24T09:06:27.432Z,5.50
2023-03-24T09:08:55.103Z,4.53
2023-03-24T09:11:24.881Z,6.90
2023-03-24T09:13:51.792Z,5.55
2023-03-24T09:16:23.318Z,7.43
2023-03-24T09:18:52.819Z,4.10
2023-03-24T09:21:22.212Z,5.25
2023-03-24T09:23:49.212Z,6.00
2023-03-24T09:26:16.214Z,5.55
2023-03-24T09:28:43.297Z,3.60
2023-03-24T09:31:11.701Z,4.18
2023-03-24T09:33:38.919Z,4.93
2023-03-24T09:38:35.943Z,2.78
2023-03-24T09:41:04.442Z,3.28
2023-03-24T09:43:40.945Z,3.97
2023-03-24T09:46:15.739Z,2.08
2023-03-24T09:48:47.148Z,6.65
2023-03-24T09:51:25.022Z,8.27
2023-03-24T09:54:16.645Z,5.68
2023-03-24T09:56:49.998Z,5.50
2023-03-24T09:59:38.334Z,3.08
2023-03-24T10:02:12.682Z,3.03
2023-03-24T10:04:40.182Z,2.75
2023-03-24T10:07:06.960Z,4.20
2023-03-24T10:09:37.555Z,1.55
2023-03-24T10:12:23.093Z,4.78
2023-03-24T10:14:52.091Z,2.67
2023-03-24T10:17:39.977Z,2.42
2023-03-24T10:20:37.900Z,2.55
2023-03-24T10:23:43.888Z,3.47
2023-03-24T10:26:44.892Z,1.73
2023-03-24T10:29:34.240Z,2.67
2023-03-24T10:32:19.459Z,1.63
2023-03-24T10:35:10.420Z,3.60
2023-03-24T10:37:39.810Z,1.60
2023-03-24T10:40:24.158Z,3.20
2023-03-24T10:43:07.022Z,4.47
2023-03-24T10:45:40.786Z,3.40
2023-03-24T10:48:09.769Z,2.78
2023-03-24T10:50:45.596Z,4.18
2023-03-24T10:53:20.660Z,4.85
2023-03-24T10:55:50.751Z,3.47
2023-03-24T10:58:36.065Z,2.00
2023-03-24T11:01:10.176Z,1.60
2023-03-24T11:03:40.160Z,3.20
2023-03-24T11:06:08.083Z,2.28
2023-03-24T11:08:39.815Z,4.13
2023-03-24T11:11:34.527Z,2.35
2023-03-24T11:14:06.461Z,3.08
2023-03-24T11:16:42.420Z,4.07
2023-03-24T11:19:32.647Z,5.22
2023-03-24T11:22:09.776Z,1.50
2023-03-24T11:24:40.848Z,3.58
2023-03-24T11:27:17.098Z,2.58
2023-03-24T11:29:54.408Z,2.45
2023-03-24T11:32:36.150Z,1.33
2023-03-24T11:35:09.164Z,2.47
2023-03-24T11:37:40.057Z,1.35
2023-03-24T11:40:16.857Z,3.08
2023-03-24T11:43:00.651Z,1.75
2023-03-24T11:45:37.080Z,1.65
2023-03-24T11:48:25.078Z,2.53
2023-03-24T11:50:57.919Z,3.92
2023-03-24T11:53:40.391Z,1.80
2023-03-24T11:56:17.755Z,5.13
2023-03-24T11:58:56.674Z,1.83
2023-03-24T12:01:28.765Z,1.40
2023-03-24T12:04:15.853Z,1.30
2023-03-24T12:06:52.085Z,1.48
2023-03-24T12:09:48.309Z,1.67
2023-03-24T12:12:21.388Z,2.67
2023-03-24T12:15:20.726Z,2.70
2023-03-24T12:18:04.496Z,1.95
2023-03-24T12:20:49.522Z,2.35
2023-03-24T12:23:32.769Z,1.30
2023-03-24T12:26:21.329Z,1.30
2023-03-24T12:28:56.937Z,1.30
2023-03-24T12:31:36.019Z,1.67
2023-03-24T12:34:29.256Z,0.93
2023-03-24T12:37:19.615Z,0.98
2023-03-24T12:40:22.268Z,2.30
2023-03-24T12:43:01.787Z,1.90
2023-03-24T12:45:46.612Z,0.80
2023-03-24T12:48:44.627Z,1.45
2023-03-24T12:51:29.672Z,1.88
2023-03-24T12:54:21.768Z,1.02
2023-03-24T12:57:04.765Z,1.08
2023-03-24T13:00:10.933Z,0.80
2023-03-24T13:03:04.896Z,4.90
2023-03-24T13:05:35.808Z,1.55
2023-03-24T13:08:09.878Z,3.45
2023-03-24T13:10:40.564Z,4.60
2023-03-24T13:13:27.097Z,5.75
2023-03-24T13:15:58.662Z,6.43
2023-03-24T13:18:39.473Z,5.90
2023-03-24T13:21:11.915Z,2.25
